createdAt,value
2023-01-23T06:17:49.831Z,29.42
2023-01-23T06:18:50.923Z,28.52
2023-01-23T06:19:50.640Z,28.27
2023-01-23T06:20:50.671Z,27.89
2023-01-23T06:21:50.624Z,27.64
2023-01-23T06:22:50.614Z,27.50
2023-01-23T06:23:50.922Z,27.38
2023-01-23T06:24:50.601Z,27.30
2023-01-23T06:25:50.582Z,27.31
2023-01-23T06:26:50.581Z,27.24
2023-01-23T06:27:50.568Z,27.31
2023-01-23T06:28:50.564Z,27.36
2023-01-23T06:29:50.559Z,27.22
2023-01-23T06:30:51.001Z,27.06
2023-01-23T06:31:50.696Z,27.07
2023-01-23T06:32:50.520Z,26.93
2023-01-23T06:33:50.644Z,27.11
2023-01-23T06:34:50.510Z,27.11
2023-01-23T06:35:50.500Z,26.97
2023-01-23T06:36:50.492Z,27.03
2023-01-23T06:37:50.486Z,27.02
2023-01-23T06:38:50.482Z,27.08
2023-01-23T06:39:50.461Z,27.09
2023-01-23T06:40:50.922Z,27.02
2023-01-23T06:41:50.446Z,26.98
2023-01-23T06:42:50.435Z,26.98
2023-01-23T06:43:50.922Z,26.92
2023-01-23T06:44:50.435Z,26.85
2023-01-23T06:45:50.433Z,26.88
2023-01-23T06:46:51.110Z,26.87
2023-01-23T06:47:50.404Z,26.83
2023-01-23T06:48:50.386Z,26.82
2023-01-23T06:49:50.500Z,26.99
2023-01-23T06:50:51.056Z,27.38
2023-01-23T06:51:50.810Z,27.85
2023-01-23T06:52:50.357Z,27.78
2023-01-23T06:53:50.357Z,27.71
2023-01-23T06:54:50.490Z,27.82
2023-01-23T06:55:50.327Z,28.10
2023-01-23T06:56:53.509Z,27.82
2023-01-23T06:57:50.866Z,27.80
2023-01-23T06:58:50.338Z,27.81
2023-01-23T07:00:53.482Z,27.70
2023-01-23T07:01:50.357Z,27.67
2023-01-23T07:02:50.505Z,27.66
2023-01-23T07:03:51.304Z,27.62
2023-01-23T07:04:50.455Z,27.63
2023-01-23T07:05:50.388Z,27.61
2023-01-23T07:06:50.274Z,27.50
2023-01-23T07:07:50.255Z,27.36
2023-01-23T07:08:50.212Z,27.39
2023-01-23T07:09:53.633Z,27.37
2023-01-23T07:10:50.197Z,27.37
2023-01-23T07:11:50.429Z,27.39
2023-01-23T07:12:50.182Z,27.39
2023-01-23T07:13:50.185Z,27.39
2023-01-23T07:14:50.432Z,27.35
2023-01-23T07:15:50.192Z,27.27
2023-01-23T07:16:50.160Z,27.23
2023-01-23T07:17:50.149Z,27.33
2023-01-23T07:18:50.128Z,27.30
2023-01-23T07:19:50.435Z,27.31
2023-01-23T07:20:50.116Z,27.32
2023-01-23T07:21:50.383Z,27.30
2023-01-23T07:22:50.721Z,27.31
2023-01-23T07:23:50.081Z,27.26
2023-01-23T07:24:50.977Z,27.20
2023-01-23T07:25:50.093Z,27.22
2023-01-23T07:26:50.070Z,27.27
2023-01-23T07:27:50.439Z,27.24
2023-01-23T07:28:50.041Z,27.30
2023-01-23T07:29:50.057Z,27.28
2023-01-23T07:30:50.144Z,27.28
2023-01-23T07:31:50.493Z,27.27
2023-01-23T07:32:50.008Z,27.27
2023-01-23T07:33:50.012Z,27.13
2023-01-23T07:34:50.000Z,27.27
2023-01-23T07:35:49.984Z,27.32
2023-01-23T07:36:50.440Z,27.32
2023-01-23T07:37:50.085Z,27.37
2023-01-23T07:38:49.957Z,27.37
2023-01-23T07:39:49.949Z,27.31
2023-01-23T07:40:49.938Z,27.35
2023-01-23T07:41:49.967Z,27.45
2023-01-23T07:42:49.922Z,23.65
2023-01-23T07:43:49.935Z,16.68
2023-01-23T07:44:49.903Z,15.69
2023-01-23T07:45:49.895Z,15.77
2023-01-23T07:46:50.090Z,16.75
2023-01-23T07:47:49.887Z,17.24
2023-01-23T07:48:49.875Z,18.05
2023-01-23T07:49:49.863Z,18.83
2023-01-23T07:50:49.924Z,19.54
2023-01-23T07:51:49.981Z,20.38
2023-01-23T07:52:49.837Z,20.66
2023-01-23T07:53:49.958Z,20.82
2023-01-23T07:54:49.821Z,21.91
2023-01-23T07:55:50.016Z,21.83
2023-01-23T07:56:49.800Z,21.75
2023-01-23T07:57:49.802Z,21.90
2023-01-23T07:58:49.794Z,21.76
2023-01-23T07:59:49.780Z,22.85
2023-01-23T08:00:49.852Z,23.39
2023-01-23T08:01:49.946Z,23.53
2023-01-23T08:02:49.782Z,23.99
2023-01-23T08:03:49.763Z,24.12
2023-01-23T08:04:49.748Z,24.17
2023-01-23T08:05:50.021Z,24.25
2023-01-23T08:06:49.724Z,24.39
2023-01-23T08:07:50.967Z,24.39
2023-01-23T08:08:49.702Z,24.46
2023-01-23T08:09:49.814Z,24.59
2023-01-23T08:10:49.955Z,24.73
2023-01-23T08:11:49.679Z,24.84
2023-01-23T08:12:49.963Z,25.14
2023-01-23T08:13:49.679Z,25.10
2023-01-23T08:14:49.648Z,25.09
2023-01-23T08:15:49.670Z,25.13
2023-01-23T08:16:49.792Z,25.29
2023-01-23T08:17:49.961Z,25.47
2023-01-23T08:18:49.619Z,25.55
2023-01-23T08:19:49.615Z,25.60
2023-01-23T08:20:49.600Z,25.63
2023-01-23T08:21:49.591Z,25.83
2023-01-23T08:22:49.977Z,25.84
2023-01-23T08:23:49.588Z,25.87
2023-01-23T08:24:49.659Z,25.78
2023-01-23T08:25:50.089Z,25.93
2023-01-23T08:26:49.954Z,25.92
2023-01-23T08:27:49.959Z,26.03
2023-01-23T08:28:49.544Z,26.03
2023-01-23T08:29:49.538Z,26.07
2023-01-23T08:30:49.664Z,26.01
2023-01-23T08:31:49.659Z,26.29
2023-01-23T08:32:49.985Z,26.45
2023-01-23T08:33:49.988Z,26.56
2023-01-23T08:34:49.966Z,26.76
2023-01-23T08:35:49.496Z,27.06
2023-01-23T08:36:49.485Z,27.10
2023-01-23T08:37:49.571Z,26.99
2023-01-23T08:38:49.491Z,27.45
2023-01-23T08:39:49.504Z,28.06
2023-01-23T08:40:49.770Z,28.14
2023-01-23T08:41:49.555Z,27.92
2023-01-23T08:42:49.494Z,28.20
2023-01-23T08:43:49.407Z,28.19
2023-01-23T08:44:49.461Z,28.38
2023-01-23T08:45:49.770Z,28.28
2023-01-23T08:46:49.391Z,28.19
2023-01-23T08:47:49.708Z,28.44
2023-01-23T08:48:49.358Z,28.68
2023-01-23T08:49:49.386Z,28.53
2023-01-23T08:50:49.498Z,28.51
2023-01-23T08:51:49.333Z,28.47
2023-01-23T08:52:49.466Z,28.49
2023-01-23T08:53:49.471Z,28.48
2023-01-23T08:54:49.330Z,28.47
2023-01-23T08:55:49.373Z,28.67
2023-01-23T08:56:49.484Z,28.74
2023-01-23T08:57:49.428Z,28.85
2023-01-23T08:58:49.469Z,28.81
2023-01-23T08:59:49.275Z,28.77
2023-01-23T09:00:49.368Z,28.93
2023-01-23T09:01:49.596Z,28.89
2023-01-23T09:02:49.239Z,28.99
2023-01-23T09:03:49.230Z,29.04
2023-01-23T09:04:49.225Z,29.07
2023-01-23T09:05:49.209Z,29.06
2023-01-23T09:06:50.227Z,29.14
2023-01-23T09:07:49.777Z,29.26
2023-01-23T09:08:49.487Z,29.32
2023-01-23T09:09:49.720Z,29.33
2023-01-23T09:10:49.212Z,29.23
2023-01-23T09:11:49.474Z,29.25
2023-01-23T09:12:49.161Z,29.27
2023-01-23T09:13:51.730Z,29.40
2023-01-23T09:14:49.186Z,29.52
2023-01-23T09:15:49.185Z,29.55
2023-01-23T09:16:49.229Z,29.60
2023-01-23T09:17:49.161Z,29.58
2023-01-23T09:18:49.180Z,29.55
2023-01-23T09:19:49.475Z,29.57
2023-01-23T09:20:49.143Z,29.74
2023-01-23T09:21:49.130Z,29.67
2023-01-23T09:22:49.119Z,29.57
2023-01-23T09:23:49.111Z,29.61
2023-01-23T09:24:49.104Z,29.62
2023-01-23T09:25:49.099Z,29.72
2023-01-23T09:26:49.088Z,29.77
2023-01-23T09:27:49.077Z,29.88
2023-01-23T09:28:49.487Z,29.82
2023-01-23T09:29:49.085Z,29.91
2023-01-23T09:30:49.099Z,29.91
2023-01-23T09:31:49.058Z,29.88
2023-01-23T09:32:49.478Z,29.90
2023-01-23T09:33:49.028Z,29.94
2023-01-23T09:34:49.060Z,29.93
2023-01-23T09:35:49.008Z,29.82
2023-01-23T09:36:48.997Z,29.80
2023-01-23T09:37:49.483Z,29.90
2023-01-23T09:38:48.995Z,29.88
2023-01-23T09:39:48.984Z,29.91
2023-01-23T09:40:48.994Z,29.07
2023-01-23T09:41:49.023Z,28.00
2023-01-23T09:42:48.955Z,28.04
2023-01-23T09:43:49.931Z,28.33
2023-01-23T09:44:48.937Z,28.28
2023-01-23T09:45:49.030Z,28.34
2023-01-23T09:46:48.926Z,28.33
2023-01-23T09:47:48.905Z,28.30
2023-01-23T09:48:49.423Z,28.50
2023-01-23T09:49:48.888Z,28.46
2023-01-23T09:50:48.923Z,28.57
2023-01-23T09:51:49.277Z,28.64
2023-01-23T09:52:48.867Z,28.68
2023-01-23T09:53:48.990Z,28.75
2023-01-23T09:54:48.840Z,28.92
2023-01-23T09:55:48.841Z,28.91
2023-01-23T09:56:48.841Z,28.94
2023-01-23T09:57:48.828Z,29.04
2023-01-23T09:58:48.811Z,29.14
2023-01-23T09:59:59.356Z,29.06
2023-01-23T10:00:48.917Z,29.14
2023-01-23T10:01:48.912Z,29.20
2023-01-23T10:02:48.840Z,29.25
2023-01-23T10:03:48.994Z,29.36
2023-01-23T10:04:48.997Z,29.36
2023-01-23T10:05:48.778Z,29.34
2023-01-23T10:06:48.857Z,29.38
2023-01-23T10:07:48.735Z,29.34
2023-01-23T10:08:48.996Z,29.40
2023-01-23T10:09:48.991Z,29.47
2023-01-23T10:10:48.726Z,29.54
2023-01-23T10:11:48.715Z,29.46
2023-01-23T10:12:48.695Z,29.55
2023-01-23T10:13:48.693Z,29.55
2023-01-23T10:14:48.694Z,29.64
2023-01-23T10:15:48.677Z,29.62
2023-01-23T10:16:50.818Z,29.66
2023-01-23T10:17:48.796Z,29.76
2023-01-23T10:18:48.647Z,29.79
2023-01-23T10:19:48.999Z,29.73
2023-01-23T10:20:48.641Z,29.75
2023-01-23T10:21:48.622Z,29.65
2023-01-23T10:22:48.618Z,29.83
2023-01-23T10:23:48.609Z,29.91
2023-01-23T10:24:48.603Z,29.90
2023-01-23T10:25:49.048Z,29.99
2023-01-23T10:26:48.579Z,29.96
2023-01-23T10:27:48.577Z,29.97
2023-01-23T10:28:48.592Z,30.15
2023-01-23T10:29:49.343Z,30.14
2023-01-23T10:30:48.682Z,30.14
2023-01-23T10:31:49.049Z,30.24
2023-01-23T10:32:49.400Z,30.13
2023-01-23T10:33:49.310Z,30.16
2023-01-23T10:34:48.823Z,30.21
2023-01-23T10:35:49.473Z,30.28
2023-01-23T10:36:54.743Z,30.24
2023-01-23T10:37:48.498Z,30.21
2023-01-23T10:38:48.504Z,30.20
2023-01-23T10:39:48.524Z,30.34
2023-01-23T10:40:48.478Z,30.41
2023-01-23T10:41:54.149Z,30.41
2023-01-23T10:42:48.464Z,30.27
2023-01-23T10:43:48.471Z,30.07
2023-01-23T10:44:48.513Z,30.22
2023-01-23T10:45:48.680Z,30.35
2023-01-23T10:46:48.504Z,30.30
2023-01-23T10:47:54.706Z,30.33
2023-01-23T10:48:48.599Z,30.28
2023-01-23T10:49:48.545Z,30.44
2023-01-23T10:50:48.391Z,30.18
2023-01-23T10:51:48.602Z,30.37
2023-01-23T10:52:48.384Z,30.38
2023-01-23T10:53:48.363Z,30.21
2023-01-23T10:54:48.517Z,30.42
2023-01-23T10:55:48.350Z,30.47
2023-01-23T10:56:48.338Z,30.51
2023-01-23T10:57:48.375Z,30.59
2023-01-23T10:58:48.321Z,30.49
2023-01-23T10:59:48.510Z,30.19
2023-01-23T11:00:48.318Z,29.13
2023-01-23T11:01:57.329Z,28.06
2023-01-23T11:02:48.334Z,28.12
2023-01-23T11:03:48.285Z,28.54
2023-01-23T11:04:48.285Z,28.04
2023-01-23T11:05:52.794Z,28.03
2023-01-23T11:06:48.255Z,28.12
2023-01-23T11:07:48.516Z,28.38
2023-01-23T11:08:48.241Z,28.58
2023-01-23T11:09:48.228Z,28.73
2023-01-23T11:10:48.226Z,28.73
2023-01-23T11:11:48.220Z,28.80
2023-01-23T11:12:48.521Z,28.84
2023-01-23T11:13:48.191Z,28.94
2023-01-23T11:14:48.221Z,28.99
2023-01-23T11:15:48.553Z,29.09
2023-01-23T11:16:48.514Z,29.45
2023-01-23T11:17:48.523Z,29.39
2023-01-23T11:18:48.161Z,29.40
2023-01-23T11:19:48.148Z,29.32
2023-01-23T11:20:48.166Z,29.37
2023-01-23T11:21:48.156Z,29.28
2023-01-23T11:22:48.516Z,29.02
2023-01-23T11:23:48.113Z,28.99
2023-01-23T11:24:48.115Z,28.39
2023-01-23T11:25:48.524Z,28.49
2023-01-23T11:26:48.090Z,28.26
2023-01-23T11:27:48.088Z,27.44
2023-01-23T11:28:48.077Z,27.59
2023-01-23T11:29:48.066Z,27.92
2023-01-23T11:30:48.685Z,28.11
2023-01-23T11:31:48.226Z,28.06
2023-01-23T11:32:48.041Z,28.10
2023-01-23T11:33:48.033Z,28.10
2023-01-23T11:34:48.027Z,27.73
2023-01-23T11:35:48.023Z,27.96
2023-01-23T11:36:48.016Z,27.85
2023-01-23T11:37:48.134Z,27.74
2023-01-23T11:38:52.484Z,27.81
2023-01-23T11:39:48.881Z,27.78
2023-01-23T11:40:47.978Z,27.79
2023-01-23T11:41:47.969Z,27.77
2023-01-23T11:42:47.976Z,27.63
2023-01-23T11:43:47.950Z,27.52
2023-01-23T11:44:48.047Z,27.56
2023-01-23T11:45:47.946Z,27.52
2023-01-23T11:46:47.926Z,27.49
2023-01-23T11:47:47.914Z,27.42
2023-01-23T11:48:47.914Z,27.35
2023-01-23T11:49:49.329Z,27.26
2023-01-23T11:50:55.303Z,27.26
2023-01-23T11:51:47.887Z,27.22
2023-01-23T11:52:47.878Z,27.16
2023-01-23T11:53:47.903Z,27.10
2023-01-23T11:54:47.862Z,27.02
2023-01-23T11:55:48.038Z,26.99
2023-01-23T11:56:48.058Z,26.91
2023-01-23T11:57:47.853Z,26.81
2023-01-23T11:58:50.306Z,26.81
2023-01-23T11:59:47.834Z,26.76
2023-01-23T12:00:48.033Z,26.66
2023-01-23T12:01:58.438Z,26.70
2023-01-23T12:02:47.851Z,26.66
2023-01-23T12:03:47.895Z,26.69
2023-01-23T12:04:47.785Z,26.72
2023-01-23T12:05:48.032Z,26.71
2023-01-23T12:06:47.755Z,26.79
2023-01-23T12:07:47.775Z,26.82
2023-01-23T12:08:47.746Z,26.79
2023-01-23T12:09:47.875Z,26.78
2023-01-23T12:10:48.038Z,26.81
2023-01-23T12:11:48.143Z,26.80
2023-01-23T12:12:47.760Z,26.79
2023-01-23T12:13:47.711Z,26.79
2023-01-23T12:14:47.692Z,26.74
2023-01-23T12:15:48.073Z,26.73
2023-01-23T12:16:47.682Z,26.65
2023-01-23T12:17:47.682Z,26.43
2023-01-23T12:18:47.669Z,25.88
2023-01-23T12:19:47.728Z,26.13
2023-01-23T12:20:48.502Z,26.10
2023-01-23T12:21:47.648Z,26.14
2023-01-23T12:22:47.639Z,25.96
2023-01-23T12:23:47.640Z,26.07
2023-01-23T12:24:48.059Z,26.17
2023-01-23T12:25:47.731Z,26.01
2023-01-23T12:26:47.612Z,25.91
2023-01-23T12:27:48.041Z,26.03
2023-01-23T12:28:47.591Z,26.15
2023-01-23T12:29:47.597Z,26.31
2023-01-23T12:30:47.565Z,26.03
2023-01-23T12:31:47.788Z,25.97
2023-01-23T12:32:47.549Z,26.05
2023-01-23T12:33:47.540Z,26.14
2023-01-23T12:34:47.544Z,25.89
2023-01-23T12:35:47.588Z,25.92
2023-01-23T12:37:06.206Z,25.92
2023-01-23T12:37:47.508Z,25.43
2023-01-23T12:38:47.506Z,25.31
2023-01-23T12:39:47.494Z,25.37
2023-01-23T12:40:47.493Z,25.48
2023-01-23T12:41:47.667Z,25.55
2023-01-23T12:42:47.476Z,25.73
2023-01-23T12:43:47.550Z,25.86
2023-01-23T12:44:47.449Z,25.72
2023-01-23T12:45:47.443Z,25.63
2023-01-23T12:46:47.475Z,25.67
2023-01-23T12:47:47.453Z,25.91
2023-01-23T12:48:48.576Z,26.08
2023-01-23T12:49:47.431Z,26.23
2023-01-23T12:50:48.065Z,26.55
2023-01-23T12:51:47.657Z,26.83
2023-01-23T12:52:47.388Z,27.15
2023-01-23T12:53:47.550Z,27.30
2023-01-23T12:54:47.375Z,27.41
2023-01-23T12:55:47.563Z,27.71
2023-01-23T12:56:47.356Z,28.65
2023-01-23T12:57:59.640Z,28.29
2023-01-23T12:58:47.556Z,28.53
2023-01-23T12:59:47.331Z,29.05
2023-01-23T13:00:47.452Z,29.64
2023-01-23T13:01:47.608Z,29.59
2023-01-23T13:02:47.308Z,29.51
2023-01-23T13:03:47.554Z,29.48
2023-01-23T13:04:47.337Z,29.51
2023-01-23T13:05:47.293Z,29.87
2023-01-23T13:06:47.593Z,29.81
2023-01-23T13:07:47.267Z,30.36
2023-01-23T13:09:02.591Z,30.36
2023-01-23T13:09:47.557Z,30.22
2023-01-23T13:10:47.240Z,30.49
2023-01-23T13:11:47.237Z,30.26
2023-01-23T13:12:47.228Z,30.02
2023-01-23T13:13:47.335Z,29.89
2023-01-23T13:15:06.875Z,29.75
2023-01-23T13:15:47.535Z,29.73
2023-01-23T13:16:47.278Z,29.74
2023-01-23T13:17:47.187Z,29.73
2023-01-23T13:18:47.172Z,29.68
2023-01-23T13:19:47.588Z,29.73
2023-01-23T13:20:47.173Z,29.65
2023-01-23T13:21:47.158Z,29.68
2023-01-23T13:22:47.141Z,29.70
2023-01-23T13:23:47.145Z,29.76
2023-01-23T13:24:47.128Z,29.74
2023-01-23T13:25:47.564Z,29.67
2023-01-23T13:26:47.121Z,29.60
2023-01-23T13:27:47.116Z,29.60
2023-01-23T13:28:47.104Z,29.61
2023-01-23T13:29:47.117Z,29.70
2023-01-23T13:30:47.561Z,29.70
2023-01-23T13:31:47.833Z,29.71
2023-01-23T13:32:47.062Z,29.78
2023-01-23T13:33:47.200Z,29.71
2023-01-23T13:34:47.050Z,29.77
2023-01-23T13:35:47.044Z,29.74
2023-01-23T13:36:47.035Z,29.74
2023-01-23T13:37:47.083Z,29.73
2023-01-23T13:38:47.027Z,29.69
2023-01-23T13:39:47.674Z,29.73
2023-01-23T13:40:47.000Z,29.54
2023-01-23T13:41:47.017Z,29.65
2023-01-23T13:42:47.014Z,29.67
2023-01-23T13:43:46.973Z,29.69
2023-01-23T13:44:47.067Z,29.73
2023-01-23T13:45:47.140Z,29.65
2023-01-23T13:46:46.947Z,29.55
2023-01-23T13:47:47.069Z,29.53
2023-01-23T13:48:46.934Z,29.75
2023-01-23T13:49:46.920Z,29.86
2023-01-23T13:50:46.916Z,29.77
2023-01-23T13:51:46.910Z,29.84
2023-01-23T13:52:47.072Z,29.81
2023-01-23T13:53:46.897Z,29.73
2023-01-23T13:54:46.880Z,29.67
2023-01-23T13:55:46.888Z,29.70
2023-01-23T13:56:46.910Z,29.71
2023-01-23T13:57:47.072Z,29.71
2023-01-23T13:58:46.858Z,29.71
2023-01-23T13:59:46.844Z,29.84
2023-01-23T14:00:46.838Z,29.83
2023-01-23T14:01:47.196Z,29.70
2023-01-23T14:02:46.818Z,29.71
2023-01-23T14:03:46.811Z,29.66
2023-01-23T14:04:47.071Z,29.71
2023-01-23T14:05:46.790Z,29.75
2023-01-23T14:06:46.784Z,29.70
2023-01-23T14:07:46.907Z,29.65
2023-01-23T14:08:46.765Z,29.70
2023-01-23T14:09:47.089Z,29.95
2023-01-23T14:10:46.750Z,29.91
2023-01-23T14:11:46.744Z,29.81
2023-01-23T14:12:46.746Z,29.82
2023-01-23T14:13:46.725Z,29.88
2023-01-23T14:14:47.081Z,30.11
2023-01-23T14:15:46.705Z,30.27
2023-01-23T14:16:46.698Z,30.16
2023-01-23T14:17:47.196Z,30.16
2023-01-23T14:18:46.685Z,30.18
2023-01-23T14:19:46.670Z,30.66
2023-01-23T14:20:46.666Z,30.39
2023-01-23T14:21:46.668Z,30.34
2023-01-23T14:22:46.743Z,30.26
2023-01-23T14:23:46.639Z,30.18
2023-01-23T14:24:46.627Z,30.06
2023-01-23T14:25:46.640Z,30.04
2023-01-23T14:26:46.617Z,29.94
2023-01-23T14:27:53.591Z,29.88
2023-01-23T14:28:46.607Z,29.84
2023-01-23T14:29:46.589Z,29.86
2023-01-23T14:30:46.588Z,29.76
2023-01-23T14:31:46.701Z,29.80
2023-01-23T14:32:46.563Z,29.76
2023-01-23T14:33:46.675Z,29.71
2023-01-23T14:34:46.548Z,29.74
2023-01-23T14:35:46.542Z,29.78
2023-01-23T14:36:46.537Z,29.71
2023-01-23T14:37:46.617Z,29.74
2023-01-23T14:38:46.536Z,29.64
2023-01-23T14:39:53.209Z,29.66
2023-01-23T14:40:51.149Z,29.72
2023-01-23T14:41:47.642Z,29.80
2023-01-23T14:42:46.594Z,29.77
2023-01-23T14:43:46.480Z,29.75
2023-01-23T14:44:46.515Z,29.74
2023-01-23T14:45:46.516Z,29.82
2023-01-23T14:46:46.450Z,29.82
2023-01-23T14:47:48.929Z,29.75
2023-01-23T14:48:46.446Z,29.77
2023-01-23T14:49:46.557Z,29.77
2023-01-23T14:50:46.594Z,29.80
2023-01-23T14:51:46.420Z,29.88
2023-01-23T14:52:46.419Z,29.80
2023-01-23T14:53:46.406Z,29.80
2023-01-23T14:54:53.799Z,29.81
2023-01-23T14:55:46.594Z,29.82
2023-01-23T14:56:46.592Z,29.85
2023-01-23T14:57:46.372Z,29.80
2023-01-23T14:58:46.358Z,29.75
2023-01-23T14:59:46.349Z,29.76
2023-01-23T15:00:46.384Z,29.77
2023-01-23T15:01:46.339Z,29.84
2023-01-23T15:02:46.397Z,29.86
2023-01-23T15:03:46.601Z,29.77
2023-01-23T15:04:46.308Z,29.80
2023-01-23T15:05:46.728Z,29.88
2023-01-23T15:06:46.291Z,29.82
2023-01-23T15:07:46.282Z,29.82
2023-01-23T15:08:46.595Z,29.73
2023-01-23T15:09:46.274Z,29.78
2023-01-23T15:10:46.260Z,29.77
2023-01-23T15:11:46.257Z,29.75
2023-01-23T15:12:46.240Z,29.76
2023-01-23T15:13:46.597Z,29.71
2023-01-23T15:14:46.277Z,29.71
2023-01-23T15:15:46.223Z,29.65
2023-01-23T15:16:46.276Z,29.72
2023-01-23T15:17:46.607Z,29.67
2023-01-23T15:18:46.895Z,29.58
2023-01-23T15:19:46.192Z,29.64
2023-01-23T15:20:46.598Z,29.63
2023-01-23T15:21:46.285Z,29.75
2023-01-23T15:22:46.168Z,29.73
2023-01-23T15:23:46.206Z,30.15
2023-01-23T15:24:46.144Z,30.18
2023-01-23T15:25:54.543Z,30.22
2023-01-23T15:26:46.129Z,30.41
2023-01-23T15:27:46.124Z,30.35
2023-01-23T15:28:46.111Z,29.72
2023-01-23T15:29:46.101Z,29.65
2023-01-23T15:30:46.138Z,29.69
2023-01-23T15:31:46.279Z,29.19
2023-01-23T15:32:46.074Z,29.02
2023-01-23T15:33:46.069Z,28.96
2023-01-23T15:34:46.078Z,28.68
2023-01-23T15:35:46.051Z,28.47
2023-01-23T15:36:46.048Z,28.44
2023-01-23T15:37:46.151Z,28.32
2023-01-23T15:38:46.109Z,28.15
2023-01-23T15:39:46.119Z,28.03
2023-01-23T15:40:46.014Z,27.75
2023-01-23T15:41:46.015Z,27.97
2023-01-23T15:42:46.007Z,28.04
2023-01-23T15:43:46.126Z,28.00
2023-01-23T15:44:45.985Z,27.92
2023-01-23T15:45:45.979Z,27.89
2023-01-23T15:46:45.983Z,27.85
2023-01-23T15:47:46.116Z,27.84
2023-01-23T15:48:45.954Z,27.70
2023-01-23T15:49:45.942Z,27.41
2023-01-23T15:50:45.932Z,27.49
2023-01-23T15:51:45.921Z,27.40
2023-01-23T15:52:45.990Z,27.37
2023-01-23T15:53:46.027Z,27.31
2023-01-23T15:54:45.904Z,27.15
2023-01-23T15:55:45.904Z,27.32
2023-01-23T15:56:48.770Z,27.01
2023-01-23T15:57:45.880Z,27.10
2023-01-23T15:58:45.874Z,27.03
2023-01-23T15:59:45.857Z,27.22
2023-01-23T16:00:45.868Z,28.04
2023-01-23T16:01:45.848Z,28.99
2023-01-23T16:02:55.729Z,29.16
2023-01-23T16:03:45.895Z,29.72
2023-01-23T16:04:45.818Z,30.36
2023-01-23T16:05:45.807Z,30.74
2023-01-23T16:06:46.129Z,31.09
2023-01-23T16:07:45.792Z,31.27
2023-01-23T16:08:48.323Z,31.41
2023-01-23T16:09:45.895Z,31.32
2023-01-23T16:10:45.771Z,31.31
2023-01-23T16:11:45.766Z,31.14
2023-01-23T16:12:45.756Z,31.11
2023-01-23T16:13:45.765Z,31.10
2023-01-23T16:14:46.119Z,31.15
2023-01-23T16:15:45.762Z,31.18
2023-01-23T16:16:45.733Z,31.12
2023-01-23T16:17:45.744Z,31.07
2023-01-23T16:18:45.709Z,31.10
2023-01-23T16:19:46.153Z,31.16
2023-01-23T16:20:45.710Z,31.15
2023-01-23T16:21:47.685Z,31.08
2023-01-23T16:22:45.672Z,31.07
2023-01-23T16:23:47.459Z,31.02
2023-01-23T16:24:45.661Z,31.05
2023-01-23T16:25:46.596Z,30.98
2023-01-23T16:26:45.640Z,30.97
2023-01-23T16:27:45.631Z,30.92
2023-01-23T16:28:46.124Z,30.91
2023-01-23T16:29:45.613Z,30.87
2023-01-23T16:30:45.609Z,30.80
2023-01-23T16:31:45.700Z,30.80
2023-01-23T16:32:46.565Z,30.77
2023-01-23T16:33:45.596Z,30.77
2023-01-23T16:34:45.635Z,30.74
2023-01-23T16:35:45.567Z,30.70
2023-01-23T16:36:45.555Z,30.70
2023-01-23T16:37:45.545Z,30.69
2023-01-23T16:38:45.545Z,30.65
2023-01-23T16:39:45.534Z,30.62
2023-01-23T16:40:45.527Z,30.60
2023-01-23T16:41:45.659Z,30.58
2023-01-23T16:42:45.503Z,30.53
2023-01-23T16:43:45.493Z,30.49
2023-01-23T16:44:45.489Z,30.56
2023-01-23T16:45:45.486Z,30.47
2023-01-23T16:46:45.531Z,30.47
2023-01-23T16:47:45.471Z,30.47
2023-01-23T16:48:45.464Z,30.46
2023-01-23T16:49:54.164Z,30.51
2023-01-23T16:50:45.440Z,30.40
2023-01-23T16:51:45.430Z,30.35
2023-01-23T16:52:45.430Z,30.39
2023-01-23T16:53:45.414Z,30.38
2023-01-23T16:54:45.477Z,30.31
2023-01-23T16:55:45.404Z,30.30
2023-01-23T16:56:45.394Z,30.31
2023-01-23T16:57:45.501Z,30.31
2023-01-23T16:58:45.373Z,30.25
2023-01-23T16:59:45.398Z,30.27
2023-01-23T17:00:45.399Z,30.25
2023-01-23T17:01:45.491Z,30.24
2023-01-23T17:02:45.341Z,30.20
2023-01-23T17:03:45.329Z,30.20
2023-01-23T17:04:45.346Z,30.19
2023-01-23T17:05:45.321Z,30.19
2023-01-23T17:06:45.324Z,30.13
2023-01-23T17:07:45.299Z,30.13
2023-01-23T17:08:45.290Z,30.15
2023-01-23T17:09:45.303Z,30.10
2023-01-23T17:10:46.753Z,30.12
2023-01-23T17:11:45.396Z,30.08
2023-01-23T17:12:45.378Z,30.06
2023-01-23T17:13:45.507Z,30.05
2023-01-23T17:14:45.373Z,30.06
2023-01-23T17:15:45.362Z,30.06
2023-01-23T17:16:45.390Z,30.04
2023-01-23T17:17:45.344Z,30.04
2023-01-23T17:18:45.329Z,29.98
2023-01-23T17:19:45.364Z,30.02
2023-01-23T17:20:45.315Z,29.98
2023-01-23T17:21:45.320Z,29.95
2023-01-23T17:22:45.305Z,29.97
2023-01-23T17:23:45.335Z,29.92
2023-01-23T17:24:46.118Z,29.96
2023-01-23T17:25:59.236Z,29.98
2023-01-23T17:26:45.263Z,29.90
2023-01-23T17:27:50.136Z,29.90
2023-01-23T17:28:45.252Z,29.88
2023-01-23T17:29:45.362Z,29.88
2023-01-23T17:30:45.267Z,29.88
2023-01-23T17:31:45.336Z,29.87
2023-01-23T17:32:45.217Z,29.87
2023-01-23T17:33:45.209Z,29.88
2023-01-23T17:34:50.198Z,29.85
2023-01-23T17:35:45.193Z,29.83
2023-01-23T17:36:45.181Z,29.79
2023-01-23T17:37:45.175Z,29.81
2023-01-23T17:38:45.164Z,29.80
2023-01-23T17:39:45.161Z,29.80
2023-01-23T17:40:45.149Z,29.78
2023-01-23T17:41:45.146Z,29.78
2023-01-23T17:42:45.150Z,29.72
2023-01-23T17:43:45.162Z,29.77
2023-01-23T17:44:45.123Z,29.75
2023-01-23T17:45:45.299Z,29.73
2023-01-23T17:46:45.100Z,29.69
2023-01-23T17:47:45.114Z,29.69
2023-01-23T17:48:45.140Z,29.69
2023-01-23T17:49:45.067Z,29.66
2023-01-23T17:50:45.064Z,29.64
2023-01-23T17:51:45.071Z,29.65
2023-01-23T17:52:45.044Z,29.63
2023-01-23T17:53:45.046Z,29.66
2023-01-23T17:54:45.031Z,29.61
2023-01-23T17:55:45.048Z,29.61
2023-01-23T17:56:45.018Z,29.59
2023-01-23T17:57:45.005Z,29.58
2023-01-23T17:58:45.085Z,29.55
2023-01-23T17:59:44.982Z,29.57
2023-01-23T18:00:45.043Z,29.58
2023-01-23T18:01:45.087Z,29.53
2023-01-23T18:02:44.962Z,29.53
2023-01-23T18:03:44.953Z,29.53
2023-01-23T18:04:44.975Z,29.51
2023-01-23T18:05:44.959Z,29.51
2023-01-23T18:06:44.926Z,29.49
2023-01-23T18:07:53.355Z,29.50
2023-01-23T18:08:44.916Z,29.47
2023-01-23T18:09:44.922Z,29.46
2023-01-23T18:10:44.894Z,29.46
2023-01-23T18:11:44.886Z,29.45
2023-01-23T18:12:44.874Z,29.42
2023-01-23T18:13:44.865Z,29.40
2023-01-23T18:14:44.864Z,29.43
2023-01-23T18:15:44.850Z,29.40
2023-01-23T18:16:44.868Z,29.39
2023-01-23T18:17:44.953Z,29.39
2023-01-23T18:18:44.832Z,29.42
2023-01-23T18:19:44.814Z,29.42
2023-01-23T18:20:44.810Z,29.39
2023-01-23T18:21:44.802Z,29.40
2023-01-23T18:22:44.789Z,29.36
2023-01-23T18:23:44.891Z,29.33
2023-01-23T18:24:44.774Z,29.33
2023-01-23T18:25:44.773Z,29.32
2023-01-23T18:26:44.758Z,29.33
2023-01-23T18:27:45.662Z,29.37
2023-01-23T18:28:44.742Z,29.34
2023-01-23T18:29:44.746Z,29.33
2023-01-23T18:30:44.744Z,29.28
2023-01-23T18:31:44.819Z,29.29
2023-01-23T18:32:44.729Z,29.28
2023-01-23T18:33:44.817Z,29.29
2023-01-23T18:34:44.767Z,29.26
2023-01-23T18:35:44.684Z,29.25
2023-01-23T18:36:44.684Z,29.21
2023-01-23T18:37:44.670Z,29.26
2023-01-23T18:38:44.666Z,29.22
2023-01-23T18:39:44.655Z,29.24
2023-01-23T18:40:44.657Z,29.22
2023-01-23T18:41:44.645Z,29.20
2023-01-23T18:42:44.632Z,29.19
2023-01-23T18:43:44.632Z,29.16
2023-01-23T18:44:44.607Z,29.16
2023-01-23T18:45:44.637Z,29.18
2023-01-23T18:46:44.600Z,29.16
2023-01-23T18:47:44.590Z,29.15
2023-01-23T18:48:44.572Z,29.17
2023-01-23T18:49:44.695Z,29.16
2023-01-23T18:50:44.559Z,29.13
2023-01-23T18:51:44.546Z,29.16
2023-01-23T18:52:44.542Z,29.11
2023-01-23T18:53:44.587Z,29.13
2023-01-23T18:54:44.535Z,29.09
2023-01-23T18:55:44.526Z,29.11
2023-01-23T18:56:44.545Z,29.11
2023-01-23T18:57:44.496Z,29.11
2023-01-23T18:58:44.491Z,29.09
2023-01-23T18:59:44.507Z,29.06
2023-01-23T19:00:44.574Z,29.11
2023-01-23T19:01:44.582Z,29.10
2023-01-23T19:02:44.466Z,29.09
2023-01-23T19:03:44.457Z,29.07
2023-01-23T19:04:44.443Z,29.07
2023-01-23T19:05:44.551Z,29.09
2023-01-23T19:06:44.428Z,29.03
2023-01-23T19:07:44.419Z,29.06
2023-01-23T19:08:44.415Z,29.02
2023-01-23T19:09:44.484Z,29.01
2023-01-23T19:10:48.719Z,29.06